createdAt,value
2023-01-30T00:01:04.103Z,61.88
2023-01-30T00:03:31.390Z,61.91
2023-01-30T00:05:58.457Z,62.27
2023-01-30T00:08:25.594Z,61.96
2023-01-30T00:10:52.780Z,61.84
2023-01-30T00:13:19.789Z,62.27
2023-01-30T00:15:48.569Z,62.91
2023-01-30T00:18:15.657Z,63.24
2023-01-30T00:20:42.704Z,63.23
2023-01-30T00:23:09.689Z,63.21
2023-01-30T00:25:36.753Z,63.06
2023-01-30T00:28:03.917Z,63.37
2023-01-30T00:30:31.059Z,63.15
2023-01-30T00:32:59.290Z,62.87
2023-01-30T00:35:28.965Z,63.60
2023-01-30T00:38:00.973Z,62.96
2023-01-30T00:40:29.736Z,63.13
2023-01-30T00:43:15.371Z,63.25
2023-01-30T00:46:03.745Z,63.31
2023-01-30T00:48:31.442Z,63.51
2023-01-30T00:50:58.833Z,63.36
2023-01-30T00:53:26.210Z,63.19
2023-01-30T00:55:54.483Z,62.83
2023-01-30T00:58:23.246Z,62.83
2023-01-30T01:00:51.378Z,62.79
2023-01-30T01:03:19.507Z,62.45
2023-01-30T01:05:47.776Z,63.42
2023-01-30T01:08:15.453Z,63.95
2023-01-30T01:10:42.555Z,63.83
2023-01-30T01:13:10.803Z,63.63
2023-01-30T01:15:38.122Z,63.93
2023-01-30T01:18:06.245Z,64.19
2023-01-30T01:20:33.707Z,63.83
2023-01-30T01:23:00.758Z,64.20
2023-01-30T01:25:27.882Z,63.88
2023-01-30T01:27:55.513Z,64.18
2023-01-30T01:30:22.548Z,64.39
2023-01-30T01:32:49.639Z,64.06
2023-01-30T01:35:17.174Z,64.25
2023-01-30T01:37:44.342Z,64.27
2023-01-30T01:40:37.474Z,63.87
2023-01-30T01:43:23.372Z,63.66
2023-01-30T01:46:20.736Z,63.77
2023-01-30T01:48:51.792Z,64.47
2023-01-30T01:51:28.378Z,64.66
2023-01-30T01:54:22.378Z,64.37
2023-01-30T01:56:50.528Z,65.14
2023-01-30T01:59:31.072Z,64.87
2023-01-30T02:02:01.805Z,65.13
2023-01-30T02:04:50.918Z,65.20
2023-01-30T02:07:21.989Z,65.18
2023-01-30T02:09:50.797Z,65.08
2023-01-30T02:12:17.996Z,64.66
2023-01-30T02:14:48.428Z,64.50
2023-01-30T02:17:35.411Z,64.31
2023-01-30T02:20:36.235Z,65.24
2023-01-30T02:23:24.342Z,64.33
2023-01-30T02:25:55.724Z,64.90
2023-01-30T02:28:32.710Z,64.61
2023-01-30T02:31:18.510Z,64.55
2023-01-30T02:34:04.513Z,63.97
2023-01-30T02:37:02.257Z,63.42
2023-01-30T02:39:44.108Z,63.50
2023-01-30T02:42:30.199Z,64.34
2023-01-30T02:45:17.272Z,63.90
2023-01-30T02:48:02.159Z,64.31
2023-01-30T02:50:47.987Z,63.75
2023-01-30T02:53:15.169Z,63.30
2023-01-30T02:55:43.252Z,63.73
2023-01-30T02:58:11.451Z,63.63
2023-01-30T03:01:04.066Z,62.87
2023-01-30T03:03:34.911Z,63.14
2023-01-30T03:06:10.861Z,63.03
2023-01-30T03:09:22.319Z,63.86
2023-01-30T03:12:15.312Z,64.03
2023-01-30T03:14:52.613Z,63.26
2023-01-30T03:17:23.843Z,62.58
2023-01-30T03:19:54.332Z,63.56
2023-01-30T03:22:22.568Z,62.97
2023-01-30T03:24:52.073Z,63.30
2023-01-30T03:27:19.830Z,63.16
2023-01-30T03:29:48.089Z,63.31
2023-01-30T03:32:15.886Z,63.44
2023-01-30T03:34:43.080Z,63.13
2023-01-30T03:37:10.675Z,63.12
2023-01-30T03:39:38.044Z,63.40
2023-01-30T03:42:06.758Z,63.78
2023-01-30T03:44:33.869Z,63.62
2023-01-30T03:47:01.142Z,64.69
2023-01-30T03:49:28.639Z,64.02
2023-01-30T03:51:56.853Z,64.13
2023-01-30T03:54:24.011Z,63.81
2023-01-30T03:56:51.162Z,64.24
2023-01-30T03:59:18.473Z,64.08
2023-01-30T04:01:51.803Z,64.02
2023-01-30T04:04:19.155Z,64.09
2023-01-30T04:06:46.305Z,63.54
2023-01-30T04:09:13.451Z,63.27
2023-01-30T04:11:44.806Z,63.12
2023-01-30T04:14:12.150Z,62.99
2023-01-30T04:16:53.996Z,63.21
2023-01-30T04:19:40.757Z,63.93
2023-01-30T04:22:07.941Z,64.07
2023-01-30T04:24:35.817Z,63.96
2023-01-30T04:27:03.289Z,64.03
2023-01-30T04:29:33.915Z,63.13
2023-01-30T04:32:04.925Z,63.78
2023-01-30T04:34:35.036Z,64.21
2023-01-30T04:37:02.366Z,63.99
2023-01-30T04:39:30.747Z,63.56
2023-01-30T04:41:57.819Z,64.21
2023-01-30T04:44:24.938Z,63.94
2023-01-30T04:47:21.009Z,63.84
2023-01-30T04:49:48.235Z,64.09
2023-01-30T04:52:16.779Z,63.65
2023-01-30T04:54:43.837Z,63.51
2023-01-30T04:57:10.941Z,63.46
2023-01-30T04:59:38.034Z,64.05
2023-01-30T05:02:09.615Z,64.02
2023-01-30T05:04:36.705Z,63.85
2023-01-30T05:07:03.766Z,63.77
2023-01-30T05:09:30.764Z,63.69
2023-01-30T05:12:01.312Z,63.71
2023-01-30T05:14:28.860Z,63.41
2023-01-30T05:16:55.915Z,63.55
2023-01-30T05:19:22.927Z,63.60
2023-01-30T05:21:50.051Z,63.04
2023-01-30T05:24:17.060Z,63.29
2023-01-30T05:26:44.131Z,62.82
2023-01-30T05:29:11.388Z,63.28
2023-01-30T05:31:38.920Z,63.31
2023-01-30T05:34:06.140Z,62.71
2023-01-30T05:36:33.157Z,63.50
2023-01-30T05:39:00.165Z,63.25
2023-01-30T05:41:27.302Z,63.35
2023-01-30T05:43:54.369Z,63.89
2023-01-30T05:46:21.728Z,63.04
2023-01-30T05:48:48.765Z,63.11
2023-01-30T05:51:21.311Z,62.46
2023-01-30T05:53:49.115Z,62.26
2023-01-30T05:56:17.285Z,62.84
2023-01-30T05:58:44.719Z,63.11
2023-01-30T06:01:13.260Z,62.90
2023-01-30T06:03:40.428Z,63.61
2023-01-30T06:06:07.917Z,63.32
2023-01-30T06:08:34.946Z,63.81
2023-01-30T06:11:03.407Z,63.34
2023-01-30T06:13:30.537Z,63.04
2023-01-30T06:15:57.924Z,63.41
2023-01-30T06:18:25.042Z,63.87
2023-01-30T06:20:53.221Z,64.13
2023-01-30T06:23:21.635Z,64.47
2023-01-30T06:25:50.089Z,64.16
2023-01-30T06:28:18.999Z,63.97
2023-01-30T06:30:46.098Z,63.88
2023-01-30T06:33:13.283Z,63.67
2023-01-30T06:35:41.655Z,63.44
2023-01-30T06:38:14.196Z,64.00
2023-01-30T06:40:44.296Z,63.99
2023-01-30T06:43:11.346Z,64.11
2023-01-30T06:45:38.382Z,63.67
2023-01-30T06:48:06.152Z,63.68
2023-01-30T06:50:34.004Z,63.94
2023-01-30T06:53:06.237Z,64.53
2023-01-30T06:55:35.874Z,64.57
2023-01-30T06:58:09.677Z,65.32
2023-01-30T07:00:39.685Z,64.77
2023-01-30T07:03:18.028Z,65.32
2023-01-30T07:05:47.019Z,65.46
2023-01-30T07:08:15.795Z,64.77
2023-01-30T07:10:44.012Z,64.32
2023-01-30T07:13:11.337Z,65.13
2023-01-30T07:15:38.656Z,65.40
2023-01-30T07:18:05.912Z,64.41
2023-01-30T07:20:33.377Z,64.49
2023-01-30T07:23:00.580Z,63.94
2023-01-30T07:25:29.051Z,63.95
2023-01-30T07:27:57.801Z,64.24
2023-01-30T07:30:25.933Z,64.35
2023-01-30T07:32:54.915Z,64.32
2023-01-30T07:35:23.166Z,64.42
2023-01-30T07:37:51.211Z,64.33
2023-01-30T07:40:19.794Z,64.45
2023-01-30T07:43:16.232Z,64.70
2023-01-30T07:45:49.111Z,64.39
2023-01-30T07:48:19.187Z,65.04
2023-01-30T07:50:46.920Z,64.69
2023-01-30T07:53:16.390Z,64.91
2023-01-30T07:55:43.644Z,64.99
2023-01-30T07:58:14.211Z,64.77
2023-01-30T08:00:41.365Z,64.70
2023-01-30T08:03:15.914Z,64.68
2023-01-30T08:05:44.154Z,63.87
2023-01-30T08:08:11.287Z,64.05
2023-01-30T08:10:38.383Z,63.71
2023-01-30T08:13:05.397Z,63.87
2023-01-30T08:15:33.637Z,63.31
2023-01-30T08:18:00.852Z,63.41
2023-01-30T08:20:28.604Z,63.14
2023-01-30T08:22:55.996Z,63.04
2023-01-30T08:25:23.404Z,63.78
2023-01-30T08:27:51.507Z,63.88
2023-01-30T08:30:20.149Z,63.65
2023-01-30T08:32:47.468Z,64.13
2023-01-30T08:35:14.883Z,64.80
2023-01-30T08:37:42.628Z,64.56
2023-01-30T08:40:10.545Z,64.03
2023-01-30T08:42:37.667Z,64.17
2023-01-30T08:45:05.198Z,64.59
2023-01-30T08:47:32.748Z,65.53
2023-01-30T08:49:59.799Z,65.01
2023-01-30T08:52:27.092Z,64.83
2023-01-30T08:54:54.190Z,64.37
2023-01-30T08:57:21.301Z,64.15
2023-01-30T08:59:51.344Z,64.57
2023-01-30T09:02:18.863Z,64.54
2023-01-30T09:04:45.871Z,64.23
2023-01-30T09:07:12.912Z,64.46
2023-01-30T09:09:39.962Z,64.30
2023-01-30T09:12:07.061Z,64.39
2023-01-30T09:14:34.053Z,63.90
2023-01-30T09:17:01.125Z,64.95
2023-01-30T09:19:28.837Z,64.33
2023-01-30T09:21:56.437Z,63.15
2023-01-30T09:24:26.780Z,63.22
2023-01-30T09:26:57.244Z,63.07
2023-01-30T09:29:24.907Z,63.23
2023-01-30T09:31:52.214Z,63.17
2023-01-30T09:34:19.509Z,62.93
2023-01-30T09:36:46.525Z,63.72
2023-01-30T09:39:13.595Z,63.57
2023-01-30T09:42:02.275Z,63.16
2023-01-30T09:44:41.130Z,63.40
2023-01-30T09:47:19.329Z,63.30
2023-01-30T09:49:58.401Z,63.47
2023-01-30T09:53:00.463Z,63.11
2023-01-30T09:55:30.358Z,63.38
2023-01-30T09:58:00.231Z,63.30
2023-01-30T10:00:43.303Z,63.72
2023-01-30T10:03:23.637Z,63.53
2023-01-30T10:05:59.336Z,63.24
2023-01-30T10:08:44.765Z,63.29
2023-01-30T10:11:42.027Z,62.78
2023-01-30T10:14:27.160Z,63.05
2023-01-30T10:17:12.587Z,63.08
2023-01-30T10:19:47.357Z,63.13
2023-01-30T10:22:20.653Z,62.51
2023-01-30T10:25:06.088Z,63.38
2023-01-30T10:27:35.297Z,63.12
2023-01-30T10:30:06.225Z,62.78
2023-01-30T10:33:03.309Z,62.56
2023-01-30T10:35:40.340Z,62.45
2023-01-30T10:38:29.223Z,61.81
2023-01-30T10:41:34.716Z,62.06
2023-01-30T10:44:13.157Z,62.16
2023-01-30T10:47:23.103Z,61.86
2023-01-30T10:49:54.690Z,61.83
2023-01-30T10:52:27.529Z,62.08
2023-01-30T10:55:36.682Z,62.00
2023-01-30T10:58:29.410Z,62.56
2023-01-30T11:01:01.491Z,62.35
2023-01-30T11:03:42.594Z,62.09
2023-01-30T11:06:18.986Z,61.76
2023-01-30T11:08:46.427Z,62.04
2023-01-30T11:11:30.456Z,61.56
2023-01-30T11:14:09.172Z,61.99
2023-01-30T11:16:49.282Z,61.92
2023-01-30T11:19:21.090Z,62.86
2023-01-30T11:22:00.832Z,62.79
2023-01-30T11:24:31.718Z,62.59
2023-01-30T11:27:22.065Z,63.73
2023-01-30T11:29:51.527Z,62.88
2023-01-30T11:32:29.634Z,62.93
2023-01-30T11:35:08.732Z,62.46
2023-01-30T11:37:44.513Z,62.48
2023-01-30T11:40:17.714Z,63.17
2023-01-30T11:42:49.116Z,63.59
2023-01-30T11:45:18.728Z,63.42
2023-01-30T11:47:59.176Z,63.44
2023-01-30T11:50:49.455Z,63.45
2023-01-30T11:53:29.424Z,64.30
2023-01-30T11:56:08.552Z,63.79
2023-01-30T11:58:39.996Z,64.33
2023-01-30T12:01:10.626Z,64.49
2023-01-30T12:03:45.912Z,64.65
2023-01-30T12:06:22.666Z,64.61
2023-01-30T12:08:54.280Z,65.09
2023-01-30T12:11:42.893Z,64.41
2023-01-30T12:14:27.671Z,64.68
2023-01-30T12:16:59.349Z,64.31
2023-01-30T12:19:42.431Z,64.58
2023-01-30T12:22:43.823Z,65.10
2023-01-30T12:25:23.513Z,64.88
2023-01-30T12:28:09.761Z,64.58
2023-01-30T12:30:44.722Z,65.45
2023-01-30T12:35:55.509Z,65.46
2023-01-30T12:38:41.383Z,65.68
2023-01-30T12:41:23.951Z,65.30
2023-01-30T12:44:06.438Z,65.27
2023-01-30T12:46:42.822Z,66.27
2023-01-30T12:49:24.756Z,66.05
2023-01-30T12:52:13.972Z,66.02
2023-01-30T12:54:47.327Z,66.20
2023-01-30T12:57:26.589Z,66.37
2023-01-30T13:00:08.696Z,66.06
2023-01-30T13:02:45.198Z,65.82
2023-01-30T13:05:50.662Z,65.03
2023-01-30T13:08:31.203Z,66.25
2023-01-30T13:11:09.566Z,65.39
2023-01-30T13:13:52.293Z,65.85
2023-01-30T13:16:36.962Z,65.57
2023-01-30T13:19:43.016Z,65.37
2023-01-30T13:22:24.157Z,65.45
2023-01-30T13:25:19.715Z,65.75
2023-01-30T13:28:06.504Z,65.68
2023-01-30T13:30:34.744Z,66.21
2023-01-30T13:33:21.275Z,67.01
2023-01-30T13:36:03.679Z,66.90
2023-01-30T13:38:35.048Z,67.47
2023-01-30T13:41:03.796Z,66.59
2023-01-30T13:43:37.288Z,67.69
2023-01-30T13:46:09.857Z,67.74
2023-01-30T13:48:46.472Z,68.00
2023-01-30T13:51:13.533Z,67.34
2023-01-30T13:54:14.432Z,67.90
2023-01-30T13:56:56.769Z,67.63
2023-01-30T13:59:36.071Z,67.38
2023-01-30T14:02:03.434Z,66.36
2023-01-30T14:04:38.075Z,67.23
2023-01-30T14:07:12.483Z,67.94
2023-01-30T14:09:49.117Z,66.94
2023-01-30T14:12:31.382Z,67.01
2023-01-30T14:15:21.939Z,67.10
2023-01-30T14:18:21.941Z,67.06
2023-01-30T14:20:52.971Z,67.14
2023-01-30T14:23:30.064Z,66.50
2023-01-30T14:26:04.194Z,66.07
2023-01-30T14:28:31.215Z,66.52
2023-01-30T14:31:03.229Z,65.87
2023-01-30T14:33:49.218Z,65.80
2023-01-30T14:36:16.250Z,65.58
2023-01-30T14:38:45.439Z,64.63
2023-01-30T14:41:15.295Z,64.70
2023-01-30T14:43:42.610Z,65.25
2023-01-30T14:46:15.842Z,64.84
2023-01-30T14:48:54.475Z,64.55
2023-01-30T14:51:35.073Z,64.54
2023-01-30T14:54:17.039Z,64.20
2023-01-30T14:56:54.799Z,64.33
2023-01-30T14:59:34.013Z,64.04
2023-01-30T15:02:06.997Z,64.46
2023-01-30T15:04:56.383Z,64.40
2023-01-30T15:07:28.750Z,64.22
2023-01-30T15:10:34.400Z,64.10
2023-01-30T15:13:08.886Z,63.64
2023-01-30T15:16:17.631Z,62.89
2023-01-30T15:19:04.199Z,63.26
2023-01-30T15:21:53.160Z,62.79
2023-01-30T15:24:32.654Z,63.45
2023-01-30T15:27:19.280Z,62.77
2023-01-30T15:29:57.699Z,62.42
2023-01-30T15:32:27.833Z,62.81
2023-01-30T15:35:01.833Z,62.45
2023-01-30T15:37:36.087Z,62.97
2023-01-30T15:40:15.423Z,62.21
2023-01-30T15:42:45.293Z,62.23
2023-01-30T15:45:38.980Z,62.49
2023-01-30T15:48:15.184Z,62.19
2023-01-30T15:50:49.429Z,62.11
2023-01-30T15:53:17.472Z,61.68
2023-01-30T15:55:45.479Z,62.56
2023-01-30T15:58:19.140Z,61.75
2023-01-30T16:00:49.063Z,62.18
2023-01-30T16:03:21.149Z,61.37
2023-01-30T16:05:50.484Z,61.27
2023-01-30T16:08:24.225Z,61.05
2023-01-30T16:10:52.104Z,61.71
2023-01-30T16:13:21.143Z,61.19
2023-01-30T16:16:13.836Z,61.37
2023-01-30T16:18:51.819Z,61.54
2023-01-30T16:21:37.656Z,61.58
2023-01-30T16:24:18.906Z,61.61
2023-01-30T16:26:50.449Z,61.00
2023-01-30T16:29:23.516Z,60.82
2023-01-30T16:31:52.867Z,60.88
2023-01-30T16:34:28.554Z,60.83
2023-01-30T16:36:57.415Z,61.24
2023-01-30T16:39:33.236Z,60.86
2023-01-30T16:42:02.148Z,60.62
2023-01-30T16:44:31.769Z,60.82
2023-01-30T16:47:04.642Z,60.45
2023-01-30T16:49:37.652Z,60.29
2023-01-30T16:52:22.745Z,60.11
2023-01-30T16:55:01.051Z,59.84
2023-01-30T16:57:37.970Z,60.19
2023-01-30T17:00:16.708Z,60.49
2023-01-30T17:02:51.564Z,60.55
2023-01-30T17:05:25.090Z,60.95
2023-01-30T17:07:54.072Z,60.61
2023-01-30T17:10:40.202Z,61.30
2023-01-30T17:13:38.915Z,61.40
2023-01-30T17:16:35.449Z,60.29
2023-01-30T17:19:03.037Z,61.03
2023-01-30T17:21:35.715Z,60.71
2023-01-30T17:24:05.312Z,61.15
2023-01-30T17:26:33.962Z,60.70
2023-01-30T17:29:01.024Z,60.88
2023-01-30T17:31:28.130Z,60.56
2023-01-30T17:33:55.318Z,60.92
2023-01-30T17:36:27.821Z,60.50
2023-01-30T17:38:56.010Z,59.96
2023-01-30T17:41:28.684Z,60.36
2023-01-30T17:43:56.089Z,59.91
2023-01-30T17:46:31.389Z,60.10
2023-01-30T17:48:58.798Z,60.19
2023-01-30T17:51:25.876Z,60.03
2023-01-30T17:53:52.894Z,60.25
2023-01-30T17:56:24.339Z,60.12
2023-01-30T17:58:51.711Z,59.95
2023-01-30T18:01:19.380Z,60.63
2023-01-30T18:03:46.763Z,60.46
2023-01-30T18:06:15.379Z,60.67
2023-01-30T18:08:43.039Z,60.58
2023-01-30T18:11:12.680Z,60.54
2023-01-30T18:13:40.380Z,60.54
2023-01-30T18:16:16.312Z,60.61
2023-01-30T18:18:43.943Z,60.71
2023-01-30T18:21:11.266Z,60.94
2023-01-30T18:23:38.779Z,60.71
2023-01-30T18:26:06.498Z,60.71
2023-01-30T18:28:33.886Z,60.96
2023-01-30T18:31:01.424Z,61.10
2023-01-30T18:33:29.264Z,60.82
2023-01-30T18:35:56.656Z,61.38
2023-01-30T18:38:24.376Z,60.91
2023-01-30T18:40:51.616Z,60.43
2023-01-30T18:43:19.103Z,60.96
2023-01-30T18:45:46.351Z,61.53
2023-01-30T18:48:14.051Z,61.05
2023-01-30T18:50:41.411Z,61.36
2023-01-30T18:53:08.732Z,61.39
2023-01-30T18:55:36.364Z,60.64
2023-01-30T19:02:34.040Z,61.44
2023-01-30T19:05:01.108Z,60.98
2023-01-30T19:07:28.159Z,60.88
2023-01-30T19:09:59.542Z,61.08
2023-01-30T19:12:44.827Z,61.15
2023-01-30T19:15:11.919Z,60.72
2023-01-30T19:17:39.007Z,60.96
2023-01-30T19:20:11.026Z,60.89
2023-01-30T19:22:39.142Z,61.10
2023-01-30T19:25:06.748Z,61.66
2023-01-30T19:27:36.790Z,62.11
2023-01-30T19:30:04.710Z,61.55
2023-01-30T19:32:31.933Z,62.11
2023-01-30T19:34:58.981Z,62.79
2023-01-30T19:37:25.968Z,63.38
2023-01-30T19:39:52.963Z,63.71
2023-01-30T19:42:19.961Z,63.66
2023-01-30T19:44:46.960Z,63.97
2023-01-30T19:47:14.031Z,65.06
2023-01-30T19:49:42.348Z,64.63
2023-01-30T19:52:09.472Z,64.95
2023-01-30T19:54:36.526Z,64.75
2023-01-30T19:57:03.649Z,64.83
2023-01-30T19:59:30.666Z,66.28
2023-01-30T20:01:57.695Z,66.14
2023-01-30T20:04:24.850Z,66.69
2023-01-30T20:06:51.898Z,66.20
2023-01-30T20:09:19.444Z,65.72
2023-01-30T20:11:46.558Z,70.60
2023-01-30T20:14:13.624Z,71.47
2023-01-30T20:16:40.941Z,67.29
2023-01-30T20:19:13.784Z,67.33
2023-01-30T20:21:41.523Z,65.91
2023-01-30T20:24:12.844Z,64.45
2023-01-30T20:26:40.389Z,64.89
2023-01-30T20:29:09.820Z,65.07
2023-01-30T20:31:39.270Z,65.91
2023-01-30T20:34:11.117Z,66.97
2023-01-30T20:36:38.174Z,66.27
2023-01-30T20:39:07.604Z,66.30
2023-01-30T20:41:37.442Z,66.85
2023-01-30T20:44:06.787Z,67.09
2023-01-30T20:46:41.557Z,67.22
2023-01-30T20:49:14.935Z,67.29
2023-01-30T20:51:42.435Z,67.49
2023-01-30T20:54:12.526Z,67.28
2023-01-30T20:56:45.791Z,66.87
2023-01-30T20:59:15.658Z,66.47
2023-01-30T21:01:43.347Z,66.29
2023-01-30T21:04:16.073Z,66.34
2023-01-30T21:06:46.006Z,66.12
2023-01-30T21:09:23.864Z,66.20
2023-01-30T21:11:53.213Z,65.60
2023-01-30T21:14:20.492Z,66.14
2023-01-30T21:16:48.121Z,66.16
2023-01-30T21:19:17.195Z,65.98
2023-01-30T21:21:55.176Z,66.07
2023-01-30T21:24:28.800Z,66.60
2023-01-30T21:26:56.682Z,65.91
2023-01-30T21:29:26.766Z,65.69
2023-01-30T21:31:54.694Z,66.14
2023-01-30T21:34:22.583Z,65.84
2023-01-30T21:37:08.125Z,66.42
2023-01-30T21:40:13.951Z,66.89
2023-01-30T21:42:59.467Z,65.81
2023-01-30T21:45:26.517Z,66.08
2023-01-30T21:47:54.431Z,65.87
2023-01-30T21:50:21.574Z,65.79
2023-01-30T21:52:48.678Z,65.94
2023-01-30T21:55:15.869Z,65.71
2023-01-30T21:57:43.139Z,65.95
2023-01-30T22:00:10.882Z,66.22
2023-01-30T22:02:38.719Z,65.69
2023-01-30T22:05:06.530Z,65.96
2023-01-30T22:07:33.943Z,65.98
2023-01-30T22:10:02.450Z,66.25
2023-01-30T22:12:32.256Z,66.73
2023-01-30T22:14:59.419Z,67.23
2023-01-30T22:17:26.560Z,67.05
2023-01-30T22:19:54.075Z,66.58
2023-01-30T22:22:24.241Z,66.27
2023-01-30T22:24:51.326Z,65.64
2023-01-30T22:27:18.452Z,65.42
2023-01-30T22:29:45.507Z,66.06
2023-01-30T22:32:12.570Z,66.73
2023-01-30T22:34:39.791Z,66.18
2023-01-30T22:37:06.853Z,65.72
2023-01-30T22:39:33.940Z,65.93
2023-01-30T22:42:00.985Z,65.80
2023-01-30T22:44:28.090Z,65.69
2023-01-30T22:46:55.170Z,65.70
2023-01-30T22:49:22.441Z,65.91
2023-01-30T22:51:49.689Z,65.73
2023-01-30T22:54:17.169Z,66.04
2023-01-30T22:56:46.712Z,66.48
2023-01-30T22:59:14.521Z,66.60
2023-01-30T23:01:45.063Z,65.69
2023-01-30T23:04:13.314Z,66.46
2023-01-30T23:06:41.308Z,66.18
2023-01-30T23:09:10.574Z,66.03
2023-01-30T23:11:41.301Z,65.55
2023-01-30T23:14:18.352Z,66.58
2023-01-30T23:16:46.039Z,66.14
2023-01-30T23:19:13.853Z,66.08
2023-01-30T23:21:44.137Z,66.04
2023-01-30T23:24:14.416Z,65.70
2023-01-30T23:26:48.650Z,65.63
2023-01-30T23:29:18.712Z,65.93
2023-01-30T23:31:47.805Z,65.51
2023-01-30T23:34:18.143Z,65.16
2023-01-30T23:36:46.171Z,65.03
2023-01-30T23:39:14.825Z,64.97
2023-01-30T23:41:42.863Z,65.53
2023-01-30T23:44:10.439Z,65.87
2023-01-30T23:46:42.298Z,65.62
2023-01-30T23:49:14.526Z,65.27
2023-01-30T23:51:43.236Z,65.98
2023-01-30T23:54:12.506Z,66.64
2023-01-30T23:56:42.067Z,66.17
2023-01-30T23:59:09.886Z,66.32
